Time;durP1;ratioP1;P1;durP2;ratioP2;P2;SDS_P1;SDS_P2;PMS_P1;PMS_P2;Temp;Humidity;BMP_temperature;BMP_pressure;BME280_temperature;BME280_humidity;BME280_pressure;Samples;Min_cycle;Max_cycle;Signal;HPM_P1;HPM_P2
2022/03/09 00:01:16;;;;;;;14.18;9.45;;;;;;;3.71;48.72;101905.16;3579547;40;20059;-63
2022/03/09 00:03:42;;;;;;;14.68;9.40;;;;;;;3.73;48.16;101906.00;3574828;40;20044;-63
2022/03/09 00:06:07;;;;;;;13.70;9.18;;;;;;;3.72;48.84;101909.59;3574902;40;20052;-63
2022/03/09 00:08:33;;;;;;;15.02;9.60;;;;;;;3.71;48.07;101914.03;3580459;40;20055;-63
2022/03/09 00:10:58;;;;;;;13.82;9.13;;;;;;;3.79;48.22;101910.34;3578025;40;20391;-63
2022/03/09 00:13:24;;;;;;;13.65;9.23;;;;;;;3.82;48.70;101916.50;3582836;40;20052;-63
2022/03/09 00:15:50;;;;;;;18.02;9.05;;;;;;;3.86;47.80;101918.19;3580987;40;20082;-63
2022/03/09 00:18:15;;;;;;;14.23;9.02;;;;;;;3.91;46.77;101916.34;3580684;40;20048;-63
2022/03/09 00:20:41;;;;;;;14.82;9.45;;;;;;;3.94;47.64;101916.31;3581690;40;20098;-63
2022/03/09 00:23:07;;;;;;;14.50;9.18;;;;;;;3.95;47.29;101920.72;3580653;40;20092;-63
2022/03/09 00:25:32;;;;;;;15.70;9.30;;;;;;;3.98;46.78;101924.22;3582974;40;20306;-63
2022/03/09 00:27:58;;;;;;;13.70;8.60;;;;;;;3.95;47.44;101922.50;3580489;40;20317;-63
2022/03/09 00:30:24;;;;;;;16.48;8.40;;;;;;;3.90;47.73;101919.94;3582338;40;20064;-62
2022/03/09 00:32:49;;;;;;;13.75;8.90;;;;;;;3.94;48.04;101916.31;3582049;40;20122;-61
2022/03/09 00:35:16;;;;;;;13.43;8.75;;;;;;;3.92;47.83;101920.75;3580787;40;20049;-61
2022/03/09 00:37:41;;;;;;;14.30;8.35;;;;;;;3.96;46.98;101924.25;3580432;40;20601;-61
2022/03/09 00:40:08;;;;;;;11.27;8.00;;;;;;;4.02;46.78;101928.59;3578777;40;20067;-61
2022/03/09 00:42:37;;;;;;;15.65;8.20;;;;;;;4.01;46.81;101916.19;3582021;40;20375;-61
2022/03/09 00:45:04;;;;;;;12.73;8.27;;;;;;;3.93;47.08;101893.28;3578025;40;20092;-62
2022/03/09 00:47:30;;;;;;;16.08;8.40;;;;;;;4.05;46.21;101907.25;3576375;40;20056;-61
2022/03/09 00:49:55;;;;;;;12.60;8.38;;;;;;;4.09;47.03;101920.50;3574282;40;20366;-62
2022/03/09 00:52:21;;;;;;;11.65;7.93;;;;;;;4.12;46.70;101919.53;3580361;40;20093;-62
2022/03/09 00:54:47;;;;;;;13.60;8.70;;;;;;;4.11;46.54;101921.31;3579160;40;20617;-61
2022/03/09 00:57:13;;;;;;;14.15;8.40;;;;;;;4.12;46.42;101919.53;3582350;40;20044;-61
2022/03/09 00:59:39;;;;;;;14.23;8.80;;;;;;;4.09;45.74;101911.59;3581033;40;20048;-61
2022/03/09 01:02:05;;;;;;;12.88;8.95;;;;;;;4.08;47.23;101917.84;3575663;40;20161;-61
2022/03/09 01:04:34;;;;;;;14.98;9.02;;;;;;;4.09;46.74;101925.81;3577593;40;20056;-61
2022/03/09 01:06:59;;;;;;;15.15;8.52;;;;;;;4.05;47.01;101928.53;3574604;40;20063;-61
2022/03/09 01:09:25;;;;;;;11.63;8.45;;;;;;;4.02;47.40;101928.59;3580796;40;20056;-61
2022/03/09 01:11:51;;;;;;;12.43;8.10;;;;;;;3.95;47.77;101918.06;3574875;40;20059;-61
2022/03/09 01:14:16;;;;;;;11.82;8.05;;;;;;;3.90;47.72;101919.03;3575158;40;20379;-62
2022/03/09 01:16:42;;;;;;;17.52;9.10;;;;;;;3.87;48.48;101919.06;3574435;40;20057;-62
2022/03/09 01:19:07;;;;;;;13.43;7.50;;;;;;;3.77;48.59;101915.69;3574228;40;20405;-61
2022/03/09 01:21:34;;;;;;;12.02;8.15;;;;;;;3.73;48.06;101919.31;3575665;40;20135;-61
2022/03/09 01:24:01;;;;;;;13.93;8.13;;;;;;;3.68;47.71;101919.41;3575689;40;20060;-62
2022/03/09 01:26:27;;;;;;;12.20;8.20;;;;;;;3.59;48.79;101916.00;3578602;40;20048;-61
2022/03/09 01:28:53;;;;;;;12.63;8.50;;;;;;;3.43;48.38;101899.41;3579712;40;20275;-61
2022/03/09 01:31:19;;;;;;;11.15;8.40;;;;;;;3.33;48.31;101897.75;3579966;40;20083;-61
2022/03/09 01:33:44;;;;;;;12.85;8.55;;;;;;;3.29;48.75;101910.22;3578793;40;20404;-62
2022/03/09 01:36:10;;;;;;;12.73;8.30;;;;;;;3.31;49.70;101916.41;3578924;40;20049;-62
2022/03/09 01:38:36;;;;;;;14.30;8.75;;;;;;;3.27;50.38;101914.69;3581387;40;20048;-62
2022/03/09 01:41:02;;;;;;;15.98;9.13;;;;;;;3.23;51.85;101912.97;3580581;40;20080;-64
2022/03/09 01:43:27;;;;;;;15.15;9.30;;;;;;;3.23;51.20;101920.94;3582152;40;20405;-63
2022/03/09 01:45:53;;;;;;;15.63;10.02;;;;;;;3.07;51.40;101892.81;3578218;40;20074;-63
2022/03/09 01:48:19;;;;;;;13.48;9.68;;;;;;;2.71;51.44;101836.66;3578857;40;20379;-63
2022/03/09 01:50:46;;;;;;;13.75;9.20;;;;;;;3.06;50.96;101912.31;3579667;40;20060;-63
2022/03/09 01:53:12;;;;;;;17.85;9.68;;;;;;;2.91;52.23;101894.81;3581565;40;20380;-63
2022/03/09 01:55:39;;;;;;;14.50;8.82;;;;;;;2.75;51.60;101870.22;3578234;40;20072;-63
2022/03/09 01:58:05;;;;;;;13.38;8.65;;;;;;;2.93;51.60;101907.16;3581000;40;20421;-63
2022/03/09 02:00:31;;;;;;;14.02;8.40;;;;;;;2.90;50.22;101901.91;3579817;40;20059;-63
2022/03/09 02:02:57;;;;;;;14.40;8.70;;;;;;;2.89;50.37;101899.28;3579059;40;20068;-62
2022/03/09 02:05:23;;;;;;;14.50;8.40;;;;;;;2.86;50.53;101899.31;3578762;40;20053;-63
2022/03/09 02:10:34;;;;;;;13.23;7.85;;;;;;;2.81;50.55;101896.69;3580576;40;20051;-63
2022/03/09 02:12:59;;;;;;;10.88;7.60;;;;;;;2.76;49.42;101899.44;3578801;40;20429;-63
2022/03/09 02:15:25;;;;;;;12.23;8.10;;;;;;;2.73;49.61;101903.91;3578692;40;20048;-60
2022/03/09 02:17:51;;;;;;;14.88;8.27;;;;;;;2.73;49.73;101910.09;3578997;40;20175;-61
2022/03/09 02:20:16;;;;;;;11.90;8.48;;;;;;;2.66;49.54;101902.19;3575950;40;20103;-61
2022/03/09 02:22:43;;;;;;;11.48;8.00;;;;;;;2.66;50.13;101903.06;3579484;40;20064;-61
2022/03/09 02:25:13;;;;;;;12.20;8.00;;;;;;;2.64;49.87;101910.19;3582146;40;20056;-61
2022/03/09 02:27:41;;;;;;;14.90;8.65;;;;;;;2.16;50.76;101827.59;3582422;40;20052;-61
2022/03/09 02:30:10;;;;;;;13.88;8.13;;;;;;;2.58;49.92;101898.75;3576230;40;20056;-62
2022/03/09 02:32:46;;;;;;;11.43;7.35;;;;;;;2.58;50.19;101898.75;3577191;40;20118;-62
2022/03/09 02:35:15;;;;;;;16.52;8.50;;;;;;;2.54;51.17;101903.22;3581785;40;20063;-62
2022/03/09 02:37:41;;;;;;;14.70;8.45;;;;;;;2.50;51.61;101905.00;3577078;40;20134;-62
2022/03/09 02:40:11;;;;;;;14.25;8.52;;;;;;;2.52;51.22;101903.22;3582288;40;20581;-62
2022/03/09 02:42:38;;;;;;;12.35;8.57;;;;;;;2.52;52.65;101894.41;3578859;40;20044;-61
2022/03/09 02:45:05;;;;;;;15.25;8.48;;;;;;;2.51;52.03;101893.53;3579067;40;20056;-62
2022/03/09 02:47:30;;;;;;;16.23;9.25;;;;;;;2.49;51.90;101884.69;3581481;40;20122;-62
2022/03/09 02:49:56;;;;;;;17.92;9.32;;;;;;;2.48;50.38;101888.25;3581043;40;20065;-62
2022/03/09 02:52:21;;;;;;;11.35;8.07;;;;;;;2.50;50.15;101885.56;3582443;40;20052;-61
2022/03/09 02:54:47;;;;;;;13.75;8.70;;;;;;;2.51;50.71;101882.03;3581292;40;20056;-62
2022/03/09 02:57:14;;;;;;;12.90;8.38;;;;;;;2.51;50.68;101882.03;3582615;40;20367;-62
2022/03/09 02:59:39;;;;;;;12.60;7.95;;;;;;;2.52;49.70;101882.00;3580414;40;20052;-61
2022/03/09 03:02:05;;;;;;;13.23;8.35;;;;;;;2.44;49.89;101870.63;3582026;40;20056;-61
2022/03/09 03:04:31;;;;;;;11.80;8.23;;;;;;;2.49;49.69;101887.34;3582377;40;20375;-62
2022/03/09 03:06:56;;;;;;;12.00;8.43;;;;;;;2.48;50.39;101887.38;3577959;40;20083;-61
2022/03/09 03:09:22;;;;;;;13.73;7.72;;;;;;;2.41;51.15;101881.25;3581778;40;20052;-62
2022/03/09 03:11:48;;;;;;;13.52;8.32;;;;;;;2.43;50.62;101884.75;3580814;40;20061;-61
2022/03/09 03:14:14;;;;;;;13.52;8.38;;;;;;;2.42;51.21;101887.44;3576134;40;20299;-61
2022/03/09 03:16:39;;;;;;;14.70;8.35;;;;;;;2.37;51.33;101889.25;3580533;40;20137;-61
2022/03/09 03:19:05;;;;;;;13.52;8.15;;;;;;;2.31;51.17;101887.53;3581604;40;20052;-64
2022/03/09 03:21:31;;;;;;;17.23;8.85;;;;;;;2.28;51.67;101895.53;3582245;40;20295;-61
2022/03/09 03:23:57;;;;;;;15.27;8.77;;;;;;;2.08;51.48;101871.88;3577690;40;20074;-63
2022/03/09 03:26:24;;;;;;;14.20;9.27;;;;;;;2.18;51.90;101894.75;3580098;40;20337;-64
2022/03/09 03:28:52;;;;;;;13.35;7.85;;;;;;;2.13;51.98;101882.44;3579185;40;20084;-61
2022/03/09 03:31:21;;;;;;;14.63;8.32;;;;;;;2.15;51.83;101891.25;3574662;40;20387;-62
2022/03/09 03:33:47;;;;;;;16.88;8.23;;;;;;;2.13;51.19;101880.66;3578075;40;20056;-61
2022/03/09 03:36:17;;;;;;;12.75;8.27;;;;;;;2.10;51.40;101870.09;3582955;40;20092;-62
2022/03/09 03:38:43;;;;;;;12.48;8.00;;;;;;;2.18;50.81;101884.13;3581498;40;20052;-61
2022/03/09 03:41:09;;;;;;;13.55;8.55;;;;;;;2.22;51.21;101879.66;3574829;40;20324;-62
2022/03/09 03:43:34;;;;;;;17.13;8.95;;;;;;;2.24;50.73;101881.41;3580527;40;20168;-61
2022/03/09 03:46:00;;;;;;;19.05;8.68;;;;;;;2.25;51.54;101869.03;3579854;40;20049;-61
2022/03/09 03:48:26;;;;;;;15.90;8.35;;;;;;;2.32;51.12;101882.22;3581376;40;20341;-61
2022/03/09 03:50:52;;;;;;;14.10;8.52;;;;;;;2.35;50.94;101886.63;3619421;22;20064;-62
2022/03/09 03:53:17;;;;;;;14.38;7.93;;;;;;;2.39;50.23;101883.03;3578905;40;20248;-62
2022/03/09 03:55:44;;;;;;;15.40;8.45;;;;;;;2.41;50.54;101886.56;3577900;40;20055;-62
2022/03/09 03:58:10;;;;;;;15.25;8.68;;;;;;;2.40;50.55;101887.44;3582300;40;20048;-62
2022/03/09 04:00:36;;;;;;;14.50;8.68;;;;;;;2.39;51.05;101888.34;3583051;40;20314;-65
2022/03/09 04:03:02;;;;;;;14.75;8.65;;;;;;;2.37;51.09;101884.81;3579554;40;20052;-62
2022/03/09 04:05:28;;;;;;;16.48;8.88;;;;;;;2.35;51.54;101891.94;3581116;40;20059;-62
2022/03/09 04:07:54;;;;;;;13.65;8.48;;;;;;;2.35;51.11;101891.03;3578509;40;20064;-62
2022/03/09 04:10:20;;;;;;;16.05;8.57;;;;;;;2.27;50.68;101889.34;3581260;40;20099;-62
2022/03/09 04:12:45;;;;;;;16.00;8.60;;;;;;;2.20;51.03;101894.75;3581999;40;20052;-62
2022/03/09 04:15:11;;;;;;;17.98;8.98;;;;;;;2.18;51.79;101896.53;3580434;40;20048;-62
2022/03/09 04:17:46;;;;;;;16.55;9.15;;;;;;;2.12;51.60;101899.22;3580435;40;20060;-62
2022/03/09 04:20:14;;;;;;;16.67;8.65;;;;;;;2.07;52.01;101891.34;3580738;40;20097;-62
2022/03/09 04:22:42;;;;;;;13.82;8.73;;;;;;;1.97;51.47;101890.53;3580316;40;20365;-62
2022/03/09 04:25:09;;;;;;;13.13;8.32;;;;;;;1.95;52.03;101888.78;3580991;40;20279;-62
2022/03/09 04:27:36;;;;;;;13.30;8.45;;;;;;;1.88;51.65;101869.41;3581420;40;20059;-62
2022/03/09 04:30:04;;;;;;;15.70;8.25;;;;;;;2.03;51.41;101879.88;3566586;40;20102;-61
2022/03/09 04:32:31;;;;;;;16.70;9.30;;;;;;;1.91;51.38;101858.78;3580939;40;20096;-62
2022/03/09 04:34:56;;;;;;;14.40;8.35;;;;;;;2.12;51.38;101878.88;3580731;40;20060;-62
2022/03/09 04:37:22;;;;;;;15.70;8.38;;;;;;;2.20;50.16;101882.34;3579489;40;20053;-62
2022/03/09 04:39:48;;;;;;;14.60;7.72;;;;;;;2.27;50.69;101884.03;3576204;40;20048;-62
2022/03/09 04:42:14;;;;;;;14.13;8.43;;;;;;;2.35;50.53;101880.41;3576536;40;20045;-62
2022/03/09 04:44:39;;;;;;;15.98;8.07;;;;;;;2.40;49.95;101874.19;3578516;40;20371;-62
2022/03/09 04:47:05;;;;;;;14.80;8.52;;;;;;;2.45;50.68;101877.66;3575972;40;20048;-62
2022/03/09 04:49:30;;;;;;;12.05;7.60;;;;;;;2.35;50.26;101854.78;3578105;40;20158;-62
2022/03/09 04:51:56;;;;;;;14.82;8.00;;;;;;;2.51;49.53;101877.59;3576253;40;20413;-62
2022/03/09 04:54:22;;;;;;;15.20;9.40;;;;;;;2.50;49.23;101875.81;3575303;40;20055;-62
2022/03/09 04:56:47;;;;;;;12.88;8.30;;;;;;;2.45;49.51;101868.84;3574652;40;20060;-62
2022/03/09 04:59:14;;;;;;;15.93;8.52;;;;;;;2.50;48.85;101867.84;3574945;40;20061;-61
2022/03/09 05:01:40;;;;;;;14.63;8.35;;;;;;;2.53;49.63;101880.22;3579529;40;20056;-62
2022/03/09 05:04:05;;;;;;;13.63;9.02;;;;;;;2.54;49.03;101872.25;3576696;40;20157;-61
2022/03/09 05:06:31;;;;;;;13.07;7.78;;;;;;;2.54;48.53;101872.25;3578756;40;20052;-62
2022/03/09 05:08:56;;;;;;;16.17;7.65;;;;;;;2.58;49.39;101866.91;3579567;40;20133;-62
2022/03/09 05:11:23;;;;;;;13.70;7.55;;;;;;;2.61;49.67;101878.38;3576804;40;20060;-62
2022/03/09 05:13:48;;;;;;;16.90;8.55;;;;;;;2.65;48.91;101873.91;3577707;40;20418;-62
2022/03/09 05:16:14;;;;;;;15.13;7.95;;;;;;;2.63;49.85;101870.38;3573792;40;20055;-62
2022/03/09 05:18:40;;;;;;;12.82;7.95;;;;;;;2.66;49.87;101880.94;3575586;40;20048;-62
2022/03/09 05:21:08;;;;;;;12.60;7.68;;;;;;;2.64;48.70;101873.03;3574121;40;20059;-62
2022/03/09 05:23:34;;;;;;;15.95;8.55;;;;;;;2.60;48.91;101870.41;3576645;40;20055;-62
2022/03/09 05:25:59;;;;;;;12.05;7.85;;;;;;;2.54;48.86;101882.00;3578584;40;20053;-63
2022/03/09 05:28:25;;;;;;;17.58;8.38;;;;;;;2.50;49.97;101870.50;3581316;40;20059;-62
2022/03/09 05:30:51;;;;;;;13.07;7.97;;;;;;;2.45;49.28;101877.66;3579473;40;20063;-62
2022/03/09 05:33:16;;;;;;;15.07;8.18;;;;;;;2.44;49.80;101881.22;3580778;40;20056;-62
2022/03/09 05:35:42;;;;;;;13.82;8.80;;;;;;;2.40;49.67;101876.84;3580741;40;20044;-61
2022/03/09 05:38:07;;;;;;;15.82;8.35;;;;;;;2.36;49.81;101887.50;3579959;40;20048;-61
2022/03/09 05:40:33;;;;;;;15.70;8.73;;;;;;;2.31;50.17;101888.41;3580236;40;20048;-61
2022/03/09 05:42:59;;;;;;;18.90;8.27;;;;;;;2.29;50.61;101892.88;3581358;40;20119;-62
2022/03/09 05:45:25;;;;;;;17.45;7.97;;;;;;;2.27;50.91;101889.34;3581174;40;20056;-62
2022/03/09 05:47:51;;;;;;;16.48;8.80;;;;;;;2.25;50.62;101890.25;3578095;40;20067;-62
2022/03/09 05:50:18;;;;;;;17.63;8.75;;;;;;;2.21;50.71;101886.75;3579790;40;20535;-62
2022/03/09 05:52:44;;;;;;;19.48;8.90;;;;;;;2.11;51.25;101881.56;3579319;40;20472;-61
2022/03/09 05:55:10;;;;;;;20.15;8.77;;;;;;;2.13;52.09;101899.25;3577447;40;20064;-61
2022/03/09 05:57:35;;;;;;;15.70;8.55;;;;;;;2.09;51.17;101908.09;3576816;40;20056;-61
2022/03/09 06:00:03;;;;;;;14.80;8.57;;;;;;;2.03;51.81;101911.72;3576864;40;20334;-62
2022/03/09 06:02:29;;;;;;;15.70;8.82;;;;;;;2.00;50.89;101909.09;3575944;40;20055;-62
2022/03/09 06:04:54;;;;;;;16.45;8.98;;;;;;;2.01;52.03;101918.78;3579383;40;20094;-61
2022/03/09 06:07:20;;;;;;;14.63;8.05;;;;;;;1.99;51.53;101922.34;3575726;40;20057;-62
2022/03/09 06:09:45;;;;;;;16.08;8.63;;;;;;;1.99;52.21;101920.56;3579449;40;20054;-61
2022/03/09 06:12:11;;;;;;;15.63;8.50;;;;;;;1.98;52.33;101921.47;3581342;40;20057;-60
2022/03/09 06:14:36;;;;;;;16.67;8.90;;;;;;;1.97;51.99;101924.16;3580741;40;20115;-61
2022/03/09 06:17:02;;;;;;;16.58;9.07;;;;;;;1.96;51.93;101931.19;3581859;40;20048;-62
2022/03/09 06:19:28;;;;;;;16.55;8.88;;;;;;;1.94;51.91;101921.50;3584733;40;20106;-61
2022/03/09 06:21:54;;;;;;;14.93;9.07;;;;;;;1.92;51.79;101921.50;3582351;40;21696;-61
2022/03/09 06:24:19;;;;;;;15.55;9.15;;;;;;;1.94;51.97;101932.13;3580569;40;20048;-63
2022/03/09 06:26:45;;;;;;;15.95;8.77;;;;;;;1.91;52.53;101925.06;3575135;40;20425;-60
2022/03/09 06:29:11;;;;;;;16.60;9.30;;;;;;;1.89;53.22;101929.50;3577108;40;20126;-61
2022/03/09 06:31:37;;;;;;;16.70;9.43;;;;;;;1.84;53.28;101928.66;3578859;40;20048;-61
2022/03/09 06:34:03;;;;;;;19.52;9.48;;;;;;;1.78;54.01;101926.06;3576363;40;20071;-61
2022/03/09 06:36:29;;;;;;;13.93;9.10;;;;;;;1.76;54.20;101925.19;3574397;40;20060;-61
2022/03/09 06:38:54;;;;;;;14.40;9.32;;;;;;;1.76;53.39;101927.84;3578266;40;20079;-61
2022/03/09 06:41:20;;;;;;;19.80;9.88;;;;;;;1.81;54.23;101939.28;3579986;40;20052;-62
2022/03/09 06:43:46;;;;;;;15.90;9.57;;;;;;;1.88;53.96;101943.66;3579409;40;20045;-61
2022/03/09 06:46:11;;;;;;;20.00;9.65;;;;;;;1.90;53.89;101930.38;3580228;40;20064;-61
2022/03/09 06:48:37;;;;;;;17.52;9.50;;;;;;;2.07;53.06;101944.38;3573091;40;20117;-60
2022/03/09 06:51:03;;;;;;;15.18;9.20;;;;;;;2.08;53.42;101936.38;3582578;40;20072;-61
2022/03/09 06:53:28;;;;;;;17.40;9.60;;;;;;;2.24;52.84;101954.81;3585271;40;20044;-62
2022/03/09 06:55:54;;;;;;;18.08;9.10;;;;;;;2.26;53.80;101947.75;3582236;40;20076;-62
2022/03/09 06:58:20;;;;;;;14.45;9.70;;;;;;;2.50;52.60;101962.53;3580200;40;20118;-62
2022/03/09 07:00:46;;;;;;;16.00;9.38;;;;;;;2.63;53.05;101960.63;3581020;40;20370;-60
2022/03/09 07:03:11;;;;;;;18.75;9.57;;;;;;;2.75;52.34;101971.09;3583358;40;20504;-61
2022/03/09 07:05:37;;;;;;;13.68;8.55;;;;;;;2.84;51.55;101960.38;3583761;40;20378;-61
2022/03/09 07:08:03;;;;;;;17.98;9.90;;;;;;;2.88;52.13;101972.72;3581476;40;20071;-61
2022/03/09 07:10:28;;;;;;;15.88;9.75;;;;;;;2.90;51.72;101975.38;3583039;40;20138;-60
2022/03/09 07:12:54;;;;;;;19.48;8.88;;;;;;;2.97;51.67;101972.63;3578290;40;20127;-61
2022/03/09 07:15:20;;;;;;;18.55;8.98;;;;;;;3.10;50.35;101969.81;3575192;40;20055;-61
2022/03/09 07:17:47;;;;;;;18.75;10.15;;;;;;;3.29;49.99;101974.00;3579281;40;20093;-61
2022/03/09 07:20:15;;;;;;;17.65;9.35;;;;;;;3.52;48.02;101975.47;3580041;40;20060;-61
2022/03/09 07:22:44;;;;;;;17.13;8.85;;;;;;;3.73;47.73;101972.50;3580456;40;20510;-62
2022/03/09 07:25:14;;;;;;;15.55;8.65;;;;;;;3.94;46.19;101974.81;3579250;40;20109;-61
2022/03/09 07:27:40;;;;;;;14.77;8.60;;;;;;;4.22;46.25;101971.72;3577842;40;20048;-61
2022/03/09 07:30:08;;;;;;;15.90;8.50;;;;;;;4.53;44.58;101965.81;3588436;39;20055;-61
2022/03/09 07:32:34;;;;;;;15.35;9.00;;;;;;;4.83;44.06;101965.25;3578110;40;20469;-62
2022/03/09 07:34:59;;;;;;;16.17;8.40;;;;;;;5.13;42.92;101965.53;3579506;40;20126;-62
2022/03/09 07:37:25;;;;;;;15.82;8.85;;;;;;;5.40;41.79;101965.88;3577393;40;20045;-62
2022/03/09 07:39:51;;;;;;;17.27;9.18;;;;;;;5.72;41.42;101966.00;3581078;40;20075;-62
2022/03/09 07:42:16;;;;;;;16.38;8.98;;;;;;;6.03;40.54;101965.31;3576130;40;20066;-62
2022/03/09 07:44:42;;;;;;;18.98;8.95;;;;;;;6.33;40.24;101973.47;3579483;40;20391;-64
2022/03/09 07:47:08;;;;;;;14.95;8.82;;;;;;;6.63;39.74;101964.66;3580271;40;20118;-62
2022/03/09 07:49:33;;;;;;;16.23;9.60;;;;;;;6.92;38.52;101958.47;3574666;40;20130;-61
2022/03/09 07:52:04;;;;;;;16.30;8.77;;;;;;;7.21;37.82;101957.63;3575659;40;20061;-61
2022/03/09 07:54:30;;;;;;;17.52;9.18;;;;;;;7.33;37.46;101942.16;3573986;40;20062;-62
2022/03/09 07:56:57;;;;;;;16.67;8.73;;;;;;;7.60;36.92;101948.44;3566490;40;20061;-61
2022/03/09 07:59:22;;;;;;;16.92;9.00;;;;;;;7.85;36.67;101959.25;3564674;40;20392;-61
2022/03/09 08:01:52;;;;;;;18.30;8.88;;;;;;;8.09;35.81;101961.13;3566452;40;20064;-62
2022/03/09 08:04:22;;;;;;;13.63;8.00;;;;;;;8.37;35.60;101962.84;3570074;40;20294;-62
2022/03/09 08:06:50;;;;;;;15.63;8.82;;;;;;;8.62;35.59;101967.38;3571271;40;20061;-62
2022/03/09 08:09:16;;;;;;;12.77;8.75;;;;;;;8.81;34.63;101968.47;3570939;40;20278;-62
2022/03/09 08:11:43;;;;;;;17.92;8.55;;;;;;;8.95;34.18;101976.91;3576125;40;20056;-61
2022/03/09 08:14:09;;;;;;;13.55;9.18;;;;;;;9.09;33.98;101949.56;3577623;40;20590;-62
2022/03/09 08:16:35;;;;;;;15.10;9.55;;;;;;;9.29;33.16;101975.63;3577774;40;20052;-61
2022/03/09 08:19:01;;;;;;;15.80;9.50;;;;;;;9.41;33.02;101985.03;3577362;40;20053;-61
2022/03/09 08:21:27;;;;;;;11.57;8.88;;;;;;;9.58;32.92;101996.00;3576786;40;20090;-61
2022/03/09 08:23:52;;;;;;;12.60;9.00;;;;;;;9.72;32.09;101985.59;3574601;40;20060;-61
2022/03/09 08:26:18;;;;;;;15.20;8.63;;;;;;;9.76;31.96;101989.88;3573230;40;20417;-61
2022/03/09 08:28:44;;;;;;;16.63;10.43;;;;;;;9.86;31.77;101990.41;3571270;40;20052;-61
2022/03/09 08:31:10;;;;;;;16.48;9.25;;;;;;;10.02;32.01;101984.41;3573062;40;20060;-61
2022/03/09 08:33:37;;;;;;;13.25;8.93;;;;;;;10.23;32.14;101986.22;3567597;40;20130;-63
2022/03/09 08:36:03;;;;;;;17.05;9.23;;;;;;;10.32;31.39;101991.25;3571582;40;20161;-62
2022/03/09 08:38:29;;;;;;;17.73;9.27;;;;;;;10.51;30.96;101991.31;3569629;40;20063;-62
2022/03/09 08:40:55;;;;;;;15.35;9.15;;;;;;;10.58;30.92;101990.13;3570337;40;20069;-64
2022/03/09 08:43:21;;;;;;;17.13;9.88;;;;;;;10.59;30.53;101991.00;3570541;40;20311;-65
2022/03/09 08:45:47;;;;;;;16.42;10.00;;;;;;;10.62;32.19;101993.53;3569171;40;20049;-64
2022/03/09 08:48:13;;;;;;;17.90;9.88;;;;;;;10.82;31.40;102003.47;3573769;40;20091;-63
2022/03/09 08:50:38;;;;;;;15.02;10.20;;;;;;;10.95;30.95;101998.41;3569896;40;20048;-63
2022/03/09 08:53:04;;;;;;;16.25;10.05;;;;;;;11.07;30.93;101993.34;3571807;40;20071;-63
2022/03/09 08:55:30;;;;;;;17.25;9.77;;;;;;;11.22;31.08;101997.13;3572109;40;20060;-62
2022/03/09 08:57:55;;;;;;;15.40;10.15;;;;;;;11.25;30.73;101997.00;3569415;40;20057;-63
2022/03/09 09:00:23;;;;;;;15.45;10.27;;;;;;;11.30;30.58;101994.97;3572371;40;20447;-63
2022/03/09 09:02:49;;;;;;;14.77;9.70;;;;;;;11.49;30.33;102004.91;3571441;40;20815;-63
2022/03/09 09:05:15;;;;;;;15.60;10.32;;;;;;;11.56;29.62;102000.97;3566189;40;20054;-63
2022/03/09 09:07:40;;;;;;;15.90;9.70;;;;;;;11.59;30.37;102001.69;3569997;40;20048;-63
2022/03/09 09:10:07;;;;;;;16.83;9.45;;;;;;;11.72;30.11;101995.72;3571548;40;20081;-63
2022/03/09 09:12:33;;;;;;;18.80;10.13;;;;;;;11.88;29.74;102001.28;3571220;40;20384;-63
2022/03/09 09:14:59;;;;;;;16.35;9.82;;;;;;;11.94;29.81;101996.47;3571338;40;20056;-63
2022/03/09 09:17:25;;;;;;;16.23;10.80;;;;;;;11.99;29.97;101966.63;3570791;40;20077;-63
2022/03/09 09:19:51;;;;;;;18.52;10.90;;;;;;;12.18;29.29;101993.50;3570391;40;20056;-63
2022/03/09 09:22:17;;;;;;;14.65;10.65;;;;;;;12.25;29.17;101989.56;3573062;40;20422;-63
2022/03/09 09:24:43;;;;;;;16.38;10.93;;;;;;;12.29;29.21;101993.84;3569775;40;20057;-63
2022/03/09 09:27:09;;;;;;;17.98;10.77;;;;;;;12.26;29.26;101989.47;3571639;40;20118;-63
2022/03/09 09:29:34;;;;;;;15.32;10.20;;;;;;;12.30;29.86;101979.41;3568763;40;20057;-63
2022/03/09 09:32:00;;;;;;;18.60;10.88;;;;;;;12.46;28.69;101985.78;3569457;40;20073;-63
2022/03/09 09:34:26;;;;;;;17.13;11.13;;;;;;;12.55;29.14;101984.41;3572370;40;20052;-66
2022/03/09 09:36:52;;;;;;;17.60;10.75;;;;;;;12.66;29.11;101983.88;3572289;40;20049;-63
2022/03/09 09:39:20;;;;;;;21.92;11.23;;;;;;;12.62;28.81;101961.56;3572059;40;20060;-63
2022/03/09 09:41:52;;;;;;;18.25;11.18;;;;;;;12.87;29.24;101976.47;3570761;40;20064;-63
2022/03/09 09:44:23;;;;;;;18.95;11.35;;;;;;;13.12;28.69;101982.28;3572754;40;20126;-63
2022/03/09 09:46:51;;;;;;;18.85;11.55;;;;;;;13.33;29.06;101983.00;3572457;40;20072;-62
2022/03/09 09:49:23;;;;;;;18.88;12.02;;;;;;;13.53;29.14;101994.53;3571894;40;20118;-63
2022/03/09 09:51:52;;;;;;;17.33;11.38;;;;;;;13.68;28.80;101980.16;3593953;22;20100;-63
2022/03/09 09:54:18;;;;;;;17.90;11.60;;;;;;;13.79;29.43;101983.13;3580832;40;20056;-62
2022/03/09 09:56:45;;;;;;;22.83;11.50;;;;;;;13.92;28.12;101978.78;3582739;40;20062;-63
2022/03/09 09:59:11;;;;;;;21.25;12.00;;;;;;;14.04;28.26;101982.59;3582317;40;20615;-63
2022/03/09 10:01:40;;;;;;;20.55;12.27;;;;;;;14.09;27.62;101994.00;3581835;40;20056;-63
2022/03/09 10:04:08;;;;;;;17.27;12.20;;;;;;;14.09;27.49;101991.31;3579937;40;20072;-65
2022/03/09 10:06:36;;;;;;;17.83;12.23;;;;;;;13.80;28.13;101946.19;3580910;40;20048;-63
2022/03/09 10:09:13;;;;;;;18.88;12.65;;;;;;;14.12;27.70;101985.72;3579955;40;20048;-63
2022/03/09 10:11:55;;;;;;;21.70;12.43;;;;;;;14.15;27.62;101990.94;3582765;40;20414;-62
2022/03/09 10:14:47;;;;;;;24.05;13.25;;;;;;;14.25;28.01;101977.75;3582977;40;20061;-63
2022/03/09 10:17:25;;;;;;;19.92;12.88;;;;;;;14.39;27.58;101975.09;3580799;40;20040;-63
2022/03/09 10:19:58;;;;;;;22.17;13.55;;;;;;;14.63;28.16;101989.03;3582055;40;20092;-61
2022/03/09 10:22:34;;;;;;;21.45;13.38;;;;;;;14.63;28.27;101977.34;3582034;40;20516;-61
2022/03/09 10:25:09;;;;;;;20.20;13.23;;;;;;;14.76;27.39;101980.19;3584174;40;20052;-61
2022/03/09 10:27:42;;;;;;;21.15;13.48;;;;;;;14.83;27.18;101970.72;3584655;40;20041;-61
2022/03/09 10:30:14;;;;;;;23.40;13.67;;;;;;;14.88;27.38;101960.47;3583452;40;20064;-62
2022/03/09 10:32:57;;;;;;;30.25;20.02;;;;;;;15.08;27.45;101970.94;3588299;39;20275;-62
2022/03/09 10:35:27;;;;;;;21.55;14.75;;;;;;;15.20;27.30;101971.13;3581697;40;20049;-61
2022/03/09 10:37:53;;;;;;;22.67;14.18;;;;;;;15.23;26.40;101963.69;3589923;40;20056;-62
2022/03/09 10:40:22;;;;;;;22.73;13.63;;;;;;;15.30;27.45;101962.31;3583476;40;20318;-62
2022/03/09 10:42:49;;;;;;;22.50;13.73;;;;;;;15.54;27.67;101965.31;3583178;40;20430;-61
2022/03/09 10:45:17;;;;;;;21.60;14.15;;;;;;;15.63;27.53;101962.94;3580928;40;20378;-62
2022/03/09 10:47:49;;;;;;;20.85;13.55;;;;;;;15.72;26.82;101970.53;3576714;40;20052;-62
2022/03/09 10:50:21;;;;;;;22.75;14.13;;;;;;;15.86;26.80;101965.09;3580628;40;20068;-62
2022/03/09 10:53:04;;;;;;;25.07;14.13;;;;;;;15.97;26.75;101970.66;3583115;39;20055;-62
2022/03/09 10:55:36;;;;;;;22.73;14.50;;;;;;;15.92;26.39;101972.81;3582153;40;20114;-62
2022/03/09 10:58:13;;;;;;;21.17;14.35;;;;;;;15.89;26.50;101969.41;3582323;40;20051;-62
2022/03/09 11:00:50;;;;;;;22.50;13.95;;;;;;;15.97;26.63;101973.34;3582687;40;20054;-62
2022/03/09 11:03:21;;;;;;;22.65;14.10;;;;;;;16.13;26.28;101962.34;3582248;40;20506;-63
2022/03/09 11:05:59;;;;;;;21.02;14.45;;;;;;;16.32;26.66;101972.84;3580196;40;20059;-62
2022/03/09 11:08:35;;;;;;;23.42;15.40;;;;;;;16.47;26.75;101963.66;3581913;40;20475;-62
2022/03/09 11:11:02;;;;;;;23.50;14.48;;;;;;;16.81;26.53;101964.09;3580946;40;20052;-62
2022/03/09 11:13:31;;;;;;;22.80;14.07;;;;;;;16.94;26.06;101942.34;3583252;40;20088;-62
2022/03/09 11:15:57;;;;;;;23.13;14.80;;;;;;;17.26;26.41;101961.78;3582016;40;20060;-62
2022/03/09 11:18:29;;;;;;;24.45;14.75;;;;;;;17.49;25.04;101951.97;3582842;40;20048;-61
2022/03/09 11:21:04;;;;;;;21.67;14.88;;;;;;;17.49;25.51;101956.53;3582195;40;20050;-62
2022/03/09 11:23:33;;;;;;;23.70;15.13;;;;;;;17.50;25.61;101950.97;3579069;40;20080;-62